createdAt,value
2022-11-24T00:01:25.533Z,98976.13
2022-11-24T00:03:55.191Z,98976.94
2022-11-24T00:06:22.029Z,98973.19
2022-11-24T00:08:48.793Z,98977.91
2022-11-24T00:11:19.095Z,98970.78
2022-11-24T00:13:46.175Z,98978.22
2022-11-24T00:16:19.056Z,98982.13
2022-11-24T00:18:47.789Z,98990.22
2022-11-24T00:21:15.996Z,98985.03
2022-11-24T00:23:43.316Z,98987.63
2022-11-24T00:26:14.232Z,98989.56
2022-11-24T00:28:42.253Z,98986.34
2022-11-24T00:31:22.844Z,98994.59
2022-11-24T00:33:51.418Z,98983.09
2022-11-24T00:36:19.567Z,98990.53
2022-11-24T00:38:46.846Z,98995.56
2022-11-24T00:41:14.144Z,98985.69
2022-11-24T00:43:40.722Z,98985.69
2022-11-24T00:46:07.574Z,98992.50
2022-11-24T00:48:34.581Z,98994.09
2022-11-24T00:51:03.671Z,99006.44
2022-11-24T00:53:30.751Z,99000.09
2022-11-24T00:55:57.330Z,98990.88
2022-11-24T00:58:25.097Z,98998.00
2022-11-24T01:00:52.856Z,98999.94
2022-11-24T01:03:20.662Z,99002.22
2022-11-24T01:05:47.238Z,98998.81
2022-11-24T01:08:13.984Z,98993.78
2022-11-24T01:10:40.859Z,98996.38
2022-11-24T01:13:07.564Z,98997.34
2022-11-24T01:15:36.310Z,98982.13
2022-11-24T01:18:03.561Z,98986.66
2022-11-24T01:20:30.619Z,98981.31
2022-11-24T01:22:57.387Z,98978.19
2022-11-24T01:25:24.480Z,98989.22
2022-11-24T01:27:51.110Z,98986.28
2022-11-24T01:30:17.795Z,98976.41
2022-11-24T01:32:44.410Z,98967.81
2022-11-24T01:35:10.986Z,98984.84
2022-11-24T01:37:37.544Z,98978.38
2022-11-24T01:40:04.545Z,98970.09
2022-11-24T01:42:43.634Z,98978.19
2022-11-24T01:45:28.224Z,98980.44
2022-11-24T01:47:55.958Z,98978.97
2022-11-24T01:50:23.089Z,98985.28
2022-11-24T01:52:54.080Z,98984.00
2022-11-24T01:55:25.758Z,98983.66
2022-11-24T01:57:59.530Z,98987.88
2022-11-24T02:00:26.436Z,98982.38
2022-11-24T02:02:53.607Z,98982.34
2022-11-24T02:05:31.105Z,98985.91
2022-11-24T02:08:01.722Z,98982.75
2022-11-24T02:10:29.779Z,98977.94
2022-11-24T02:12:59.031Z,98986.78
2022-11-24T02:15:26.110Z,98984.78
2022-11-24T02:17:52.699Z,98993.88
2022-11-24T02:20:19.720Z,99001.19
2022-11-24T02:23:08.276Z,99009.53
2022-11-24T02:25:55.769Z,99023.13
2022-11-24T02:28:24.651Z,99035.34
2022-11-24T02:30:52.939Z,99039.16
2022-11-24T02:33:21.235Z,99053.22
2022-11-24T02:35:48.223Z,99054.69
2022-11-24T02:38:15.084Z,99052.41
2022-11-24T02:40:46.321Z,99051.53
2022-11-24T02:43:18.007Z,99063.66
2022-11-24T02:45:44.550Z,99061.72
2022-11-24T02:48:11.418Z,99059.50
2022-11-24T02:50:38.029Z,99064.06
2022-11-24T02:53:04.606Z,99070.16
2022-11-24T02:55:31.276Z,99068.31
2022-11-24T02:57:57.878Z,99075.69
2022-11-24T03:00:24.721Z,99075.84
2022-11-24T03:02:51.445Z,99083.06
2022-11-24T03:05:18.338Z,99093.88
2022-11-24T03:07:44.962Z,99100.88
2022-11-24T03:10:12.073Z,99099.69
2022-11-24T03:12:38.844Z,99102.97
2022-11-24T03:15:06.424Z,99099.78
2022-11-24T03:17:32.974Z,99101.13
2022-11-24T03:20:04.295Z,99108.13
2022-11-24T03:22:31.586Z,99101.63
2022-11-24T03:24:58.119Z,99101.03
2022-11-24T03:27:24.906Z,99103.13
2022-11-24T03:29:51.456Z,99110.06
2022-11-24T03:32:18.103Z,99106.38
2022-11-24T03:34:45.025Z,99101.84
2022-11-24T03:37:11.661Z,99112.56
2022-11-24T03:39:38.289Z,99111.53
2022-11-24T03:42:04.990Z,99105.19
2022-11-24T03:44:31.697Z,99107.63
2022-11-24T03:46:58.426Z,99124.31
2022-11-24T03:49:25.073Z,99099.25
2022-11-24T03:51:51.603Z,99105.09
2022-11-24T03:54:18.189Z,99101.03
2022-11-24T03:56:44.779Z,99101.03
2022-11-24T03:59:11.301Z,99103.97
2022-11-24T04:01:37.961Z,99099.53
2022-11-24T04:04:04.955Z,99110.41
2022-11-24T04:06:31.645Z,99104.28
2022-11-24T04:09:00.202Z,99116.00
2022-11-24T04:11:26.844Z,99113.41
2022-11-24T04:13:54.031Z,99113.06
2022-11-24T04:16:20.624Z,99115.66
2022-11-24T04:18:47.334Z,99110.78
2022-11-24T04:21:13.919Z,99110.25
2022-11-24T04:23:40.457Z,99119.19
2022-11-24T04:26:07.042Z,99113.94
2022-11-24T04:28:33.579Z,99126.28
2022-11-24T04:31:04.397Z,99117.19
2022-11-24T04:33:31.392Z,99123.91
2022-11-24T04:35:58.315Z,99135.56
2022-11-24T04:39:23.332Z,99145.44
2022-11-24T04:41:11.557Z,99146.97
2022-11-24T04:43:40.758Z,99147.63
2022-11-24T04:46:10.384Z,99148.13
2022-11-24T04:48:37.261Z,99159.34
2022-11-24T04:51:07.158Z,99162.06
2022-11-24T04:53:33.870Z,99163.41
2022-11-24T04:56:05.201Z,99167.25
2022-11-24T04:58:31.931Z,99177.84
2022-11-24T05:00:58.433Z,99175.28
2022-11-24T05:03:25.083Z,99172.03
2022-11-24T05:05:51.667Z,99176.25
2022-11-24T05:08:18.174Z,99171.22
2022-11-24T05:10:44.768Z,99176.50
2022-11-24T05:13:12.922Z,99178.63
2022-11-24T05:15:41.407Z,99187.41
2022-11-24T05:18:12.137Z,99194.38
2022-11-24T05:20:38.717Z,99198.22
2022-11-24T05:23:06.995Z,99195.91
2022-11-24T05:25:35.130Z,99201.00
2022-11-24T05:28:06.550Z,99201.53
2022-11-24T05:30:33.163Z,99196.72
2022-11-24T05:33:05.673Z,99193.59
2022-11-24T05:35:32.483Z,99207.56
2022-11-24T05:37:59.030Z,99204.31
2022-11-24T05:40:25.663Z,99201.13
2022-11-24T05:42:52.275Z,99212.47
2022-11-24T05:45:21.244Z,99217.09
2022-11-24T05:47:49.534Z,99223.06
2022-11-24T05:50:18.328Z,99228.25
2022-11-24T05:52:45.001Z,99230.97
2022-11-24T05:55:12.274Z,99234.38
2022-11-24T05:57:38.812Z,99236.81
2022-11-24T06:00:06.562Z,99243.75
2022-11-24T06:02:33.278Z,99246.88
2022-11-24T06:04:59.864Z,99238.31
2022-11-24T06:07:26.408Z,99245.09
2022-11-24T06:09:52.950Z,99248.09
2022-11-24T06:12:19.762Z,99244.56
2022-11-24T06:14:46.332Z,99255.44
2022-11-24T06:17:13.292Z,99257.59
2022-11-24T06:19:42.115Z,99259.66
2022-11-24T06:22:08.949Z,99262.38
2022-11-24T06:24:35.848Z,99256.09
2022-11-24T06:27:02.507Z,99261.00
2022-11-24T06:29:28.958Z,99256.94
2022-11-24T06:31:55.543Z,99262.22
2022-11-24T06:34:22.097Z,99263.59
2022-11-24T06:36:48.660Z,99273.38
2022-11-24T06:39:15.427Z,99272.28
2022-11-24T06:41:41.967Z,99279.75
2022-11-24T06:44:08.496Z,99284.09
2022-11-24T06:46:35.068Z,99282.47
2022-11-24T06:49:01.594Z,99284.75
2022-11-24T06:51:28.266Z,99294.50
2022-11-24T06:53:54.944Z,99296.16
2022-11-24T06:56:22.043Z,99293.16
2022-11-24T06:58:50.852Z,99293.16
2022-11-24T07:01:23.219Z,99285.78
2022-11-24T07:03:51.227Z,99286.47
2022-11-24T07:06:18.907Z,99290.06
2022-11-24T07:08:45.713Z,99299.69
2022-11-24T07:11:15.454Z,99294.00
2022-11-24T07:13:43.728Z,99298.06
2022-11-24T07:16:14.529Z,99295.75
2022-11-24T07:18:42.311Z,99297.66
2022-11-24T07:21:08.763Z,99297.25
2022-11-24T07:23:35.450Z,99300.53
2022-11-24T07:26:06.667Z,99300.25
2022-11-24T07:28:34.504Z,99299.16
2022-11-24T07:31:12.452Z,99296.72
2022-11-24T07:33:39.633Z,99302.41
2022-11-24T07:36:08.251Z,99305.13
2022-11-24T07:38:35.868Z,99303.50
2022-11-24T07:41:07.812Z,99308.66
2022-11-24T07:43:36.088Z,99307.84
2022-11-24T07:46:03.918Z,99294.47
2022-11-24T07:48:30.493Z,99299.09
2022-11-24T07:50:59.859Z,99310.00
2022-11-24T07:53:27.159Z,99319.66
2022-11-24T07:55:57.612Z,99320.59
2022-11-24T07:58:27.609Z,99318.44
2022-11-24T08:00:57.704Z,99328.63
2022-11-24T08:03:25.192Z,99323.88
2022-11-24T08:06:22.209Z,99332.56
2022-11-24T08:08:42.801Z,99335.31
2022-11-24T08:11:15.762Z,99329.31
2022-11-24T08:13:43.223Z,99334.88
2022-11-24T08:16:12.997Z,99332.22
2022-11-24T08:18:39.655Z,99329.47
2022-11-24T08:21:07.168Z,99328.09
2022-11-24T08:23:34.319Z,99331.31
2022-11-24T08:26:06.066Z,99332.97
2022-11-24T08:28:32.976Z,99339.53
2022-11-24T08:31:08.384Z,99328.88
2022-11-24T08:33:35.005Z,99336.78
2022-11-24T08:36:09.628Z,99340.56
2022-11-24T08:38:36.359Z,99350.13
2022-11-24T08:41:05.505Z,99352.59
2022-11-24T08:43:32.882Z,99353.41
2022-11-24T08:46:04.622Z,99355.97
2022-11-24T08:48:31.157Z,99352.22
2022-11-24T08:50:59.125Z,99354.56
2022-11-24T08:53:25.675Z,99357.88
2022-11-24T08:55:52.205Z,99365.78
2022-11-24T08:58:18.842Z,99359.41
2022-11-24T09:00:45.395Z,99364.31
2022-11-24T09:03:12.528Z,99365.03
2022-11-24T09:05:54.469Z,99364.09
2022-11-24T09:08:20.989Z,99363.94
2022-11-24T09:10:47.614Z,99367.75
2022-11-24T09:13:14.185Z,99365.06
2022-11-24T09:15:41.460Z,99369.72
2022-11-24T09:18:08.084Z,99368.25
2022-11-24T09:20:34.694Z,99366.97
2022-11-24T09:23:01.274Z,99362.31
2022-11-24T09:25:27.862Z,99361.91
2022-11-24T09:27:54.423Z,99367.25
2022-11-24T09:30:21.118Z,99363.94
2022-11-24T09:32:47.848Z,99365.72
2022-11-24T09:35:14.576Z,99357.97
2022-11-24T09:37:41.155Z,99362.31
2022-11-24T09:40:10.649Z,99362.06
2022-11-24T09:42:43.074Z,99359.03
2022-11-24T09:45:19.985Z,99362.09
2022-11-24T09:48:04.161Z,99364.50
2022-11-24T09:50:36.352Z,99364.66
2022-11-24T09:53:05.656Z,99368.09
2022-11-24T09:55:48.599Z,99379.16
2022-11-24T09:58:48.518Z,99373.66
2022-11-24T10:01:24.616Z,99377.25
2022-11-24T10:03:52.344Z,99383.44
2022-11-24T10:06:31.019Z,99379.44
2022-11-24T10:09:25.390Z,99376.97
2022-11-24T10:12:06.051Z,99378.72
2022-11-24T10:15:09.733Z,99386.31
2022-11-24T10:17:54.790Z,99385.22
2022-11-24T10:20:45.137Z,99380.59
2022-11-24T10:23:53.010Z,99389.69
2022-11-24T10:26:40.390Z,99395.25
2022-11-24T10:29:12.711Z,99392.09
2022-11-24T10:31:45.613Z,99396.44
2022-11-24T10:34:22.134Z,99394.28
2022-11-24T10:37:01.323Z,99398.91
2022-11-24T10:39:46.009Z,99397.03
2022-11-24T10:42:33.665Z,99398.41
2022-11-24T10:45:02.455Z,99421.53
2022-11-24T10:47:30.327Z,99400.25
2022-11-24T10:50:00.322Z,99397.53
2022-11-24T10:52:30.259Z,99409.44
2022-11-24T10:55:05.260Z,99398.41
2022-11-24T10:57:34.556Z,99402.22
2022-11-24T11:00:04.360Z,99405.75
2022-11-24T11:02:37.594Z,99404.81
2022-11-24T11:05:43.091Z,99409.16
2022-11-24T11:08:21.544Z,99407.13
2022-11-24T11:10:50.695Z,99411.47
2022-11-24T11:13:28.842Z,99418.00
2022-11-24T11:15:57.273Z,99416.38
2022-11-24T11:18:31.808Z,99415.28
2022-11-24T11:21:00.907Z,99409.28
2022-11-24T11:23:45.629Z,99409.56
2022-11-24T11:26:24.401Z,99406.03
2022-11-24T11:34:53.544Z,99415.00
2022-11-24T11:37:21.630Z,99419.34
2022-11-24T11:39:54.224Z,99424.09
2022-11-24T11:43:01.195Z,99423.84
2022-11-24T11:45:36.007Z,99422.47
2022-11-24T11:48:03.494Z,99430.63
2022-11-24T11:51:06.631Z,99433.78
2022-11-24T11:53:40.562Z,99438.09
2022-11-24T11:56:24.347Z,99441.38
2022-11-24T11:59:03.034Z,99434.31
2022-11-24T12:01:51.089Z,99437.84
2022-11-24T12:04:45.354Z,99441.63
2022-11-24T12:07:25.886Z,99435.53
2022-11-24T12:10:22.477Z,99437.56
2022-11-24T12:12:57.886Z,99441.78
2022-11-24T12:15:38.680Z,99442.88
2022-11-24T12:18:49.005Z,99443.53
2022-11-24T12:21:12.634Z,99438.53
2022-11-24T12:23:56.974Z,99437.03
2022-11-24T12:26:46.552Z,99443.59
2022-11-24T12:29:37.306Z,99445.97
2022-11-24T12:32:36.642Z,99450.50
2022-11-24T12:35:05.947Z,99451.63
2022-11-24T12:37:40.734Z,99453.91
2022-11-24T12:40:14.655Z,99451.56
2022-11-24T12:42:49.217Z,99468.38
2022-11-24T12:45:20.854Z,99458.63
2022-11-24T12:48:01.027Z,99464.97
2022-11-24T12:50:30.448Z,99474.34
2022-11-24T12:53:05.994Z,99468.56
2022-11-24T12:55:33.355Z,99481.16
2022-11-24T12:58:25.574Z,99483.75
2022-11-24T13:00:57.998Z,99477.88
2022-11-24T13:03:35.856Z,99488.22
2022-11-24T13:06:24.333Z,99480.63
2022-11-24T13:08:51.131Z,99476.00
2022-11-24T13:11:21.002Z,99489.59
2022-11-24T13:14:11.782Z,99486.19
2022-11-24T13:19:44.687Z,99506.78
2022-11-24T13:22:16.644Z,99504.19
2022-11-24T13:24:43.623Z,99496.53
2022-11-24T13:27:16.007Z,99502.94
2022-11-24T13:29:48.177Z,99508.22
2022-11-24T13:32:14.657Z,99513.38
2022-11-24T13:34:41.138Z,99508.47
2022-11-24T13:37:26.814Z,99510.31
2022-11-24T13:40:03.612Z,99511.00
2022-11-24T13:42:43.367Z,99512.94
2022-11-24T13:45:40.351Z,99516.78
2022-11-24T13:48:19.759Z,99516.53
2022-11-24T13:50:52.568Z,99522.44
2022-11-24T13:53:27.855Z,99529.13
2022-11-24T13:56:03.900Z,99533.66
2022-11-24T13:58:31.815Z,99528.31
2022-11-24T14:01:03.208Z,99526.66
2022-11-24T14:03:34.083Z,99525.53
2022-11-24T14:06:02.094Z,99526.22
2022-11-24T14:08:37.072Z,99519.22
2022-11-24T14:11:13.186Z,99522.84
2022-11-24T14:13:40.291Z,99521.34
2022-11-24T14:16:09.629Z,99531.19
2022-11-24T14:18:38.425Z,99526.84
2022-11-24T14:21:20.364Z,99526.94
2022-11-24T14:23:51.294Z,99543.50
2022-11-24T14:26:42.255Z,99532.97
2022-11-24T14:29:21.216Z,99541.59
2022-11-24T14:31:55.812Z,99531.16
2022-11-24T14:34:23.869Z,99531.78
2022-11-24T14:36:52.306Z,99526.50
2022-11-24T14:39:23.796Z,99529.84
2022-11-24T14:42:06.481Z,99538.53
2022-11-24T14:44:42.091Z,99533.13
2022-11-24T14:47:32.430Z,99537.78
2022-11-24T14:50:15.330Z,99545.56
2022-11-24T14:52:49.866Z,99548.03
2022-11-24T14:55:26.838Z,99550.97
2022-11-24T14:57:53.704Z,99554.13
2022-11-24T15:00:30.755Z,99556.22
2022-11-24T15:03:17.677Z,99559.59
2022-11-24T15:05:50.469Z,99558.41
2022-11-24T15:11:00.520Z,99559.50
2022-11-24T15:13:36.959Z,99567.84
2022-11-24T15:16:14.907Z,99561.53
2022-11-24T15:18:42.994Z,99560.13
2022-11-24T15:21:14.271Z,99562.44
2022-11-24T15:24:05.603Z,99564.31
2022-11-24T15:26:38.272Z,99577.06
2022-11-24T15:29:08.205Z,99575.19
2022-11-24T15:31:34.804Z,99576.81
2022-11-24T15:34:01.394Z,99586.31
2022-11-24T15:36:28.022Z,99577.19
2022-11-24T15:38:54.578Z,99578.72
2022-11-24T15:41:27.780Z,99579.06
2022-11-24T15:43:54.360Z,99579.28
2022-11-24T15:46:20.937Z,99579.41
2022-11-24T15:48:47.458Z,99585.84
2022-11-24T15:51:14.498Z,99587.63
2022-11-24T15:53:45.051Z,99589.38
2022-11-24T15:56:22.026Z,99590.81
2022-11-24T15:58:48.511Z,99590.91
2022-11-24T16:01:15.169Z,99596.34
2022-11-24T16:03:47.357Z,99595.47
2022-11-24T16:06:24.221Z,99601.56
2022-11-24T16:08:53.906Z,99605.53
2022-11-24T16:11:21.115Z,99611.16
2022-11-24T16:13:52.389Z,99615.63
2022-11-24T16:16:20.806Z,99620.34
2022-11-24T16:18:47.392Z,99612.38
2022-11-24T16:21:14.033Z,99614.94
2022-11-24T16:23:40.809Z,99619.03
2022-11-24T16:26:07.278Z,99627.13
2022-11-24T16:28:35.251Z,99610.97
2022-11-24T16:31:02.749Z,99621.28
2022-11-24T16:33:29.904Z,99639.31
2022-11-24T16:35:56.675Z,99618.47
2022-11-24T16:38:23.325Z,99642.25
2022-11-24T16:40:54.475Z,99619.16
2022-11-24T16:43:20.980Z,99622.09
2022-11-24T16:46:03.226Z,99633.00
2022-11-24T16:48:32.516Z,99631.34
2022-11-24T16:51:05.790Z,99637.66
2022-11-24T16:53:32.443Z,99635.09
2022-11-24T16:55:58.990Z,99644.69
2022-11-24T16:58:25.679Z,99640.84
2022-11-24T17:00:52.186Z,99651.28
2022-11-24T17:03:18.741Z,99654.91
2022-11-24T17:05:56.919Z,99647.63
2022-11-24T17:08:23.768Z,99655.38
2022-11-24T17:10:50.317Z,99653.84
2022-11-24T17:13:16.941Z,99649.28
2022-11-24T17:15:48.425Z,99654.53
2022-11-24T17:18:24.447Z,99662.63
2022-11-24T17:20:51.592Z,99657.00
2022-11-24T17:23:18.105Z,99665.09
2022-11-24T17:25:44.718Z,99663.44
2022-11-24T17:28:11.221Z,99670.00
2022-11-24T17:30:37.749Z,99661.56
2022-11-24T17:33:04.364Z,99664.72
2022-11-24T17:35:30.785Z,99664.97
2022-11-24T17:37:57.296Z,99665.56
2022-11-24T17:40:28.698Z,99668.84
2022-11-24T17:42:59.607Z,99666.13
2022-11-24T17:45:27.743Z,99658.31
2022-11-24T17:47:54.795Z,99664.53
2022-11-24T17:50:25.630Z,99665.81
2022-11-24T17:52:53.576Z,99666.84
2022-11-24T17:55:20.200Z,99674.47
2022-11-24T17:57:46.793Z,99672.63
2022-11-24T18:00:14.043Z,99674.47
2022-11-24T18:02:40.605Z,99667.94
2022-11-24T18:05:07.558Z,99669.69
2022-11-24T18:07:35.853Z,99660.56
2022-11-24T18:10:02.696Z,99666.06
2022-11-24T18:12:29.227Z,99663.47
2022-11-24T18:14:55.851Z,99656.69
2022-11-24T18:17:22.379Z,99668.28
2022-11-24T18:19:48.924Z,99669.09
2022-11-24T18:22:15.427Z,99675.78
2022-11-24T18:24:41.991Z,99677.06
2022-11-24T18:27:08.427Z,99680.56
2022-11-24T18:29:35.017Z,99683.84
2022-11-24T18:32:01.558Z,99692.13
2022-11-24T18:34:28.096Z,99685.47
2022-11-24T18:36:54.683Z,99685.72
2022-11-24T18:39:21.235Z,99686.63
2022-11-24T18:41:47.728Z,99686.28
2022-11-24T18:44:14.376Z,99687.34
2022-11-24T18:46:40.969Z,99689.53
2022-11-24T18:49:07.639Z,99687.34
2022-11-24T18:51:34.257Z,99689.44
2022-11-24T18:54:00.856Z,99689.91
2022-11-24T18:56:27.547Z,99691.81
2022-11-24T18:58:55.705Z,99695.28
2022-11-24T19:01:25.608Z,99695.53
2022-11-24T19:03:54.746Z,99701.50
2022-11-24T19:06:32.971Z,99696.94
2022-11-24T19:09:15.137Z,99690.13
2022-11-24T19:11:44.139Z,99695.50
2022-11-24T19:14:13.750Z,99699.25
2022-11-24T19:16:40.935Z,99690.72
2022-11-24T19:19:08.350Z,99689.41
2022-11-24T19:21:38.102Z,99692.09
2022-11-24T19:24:06.046Z,99695.72
2022-11-24T19:26:34.019Z,99691.25
2022-11-24T19:29:00.795Z,99689.59
2022-11-24T19:31:27.493Z,99691.50
2022-11-24T19:33:54.169Z,99695.34
2022-11-24T19:36:22.087Z,99697.81
2022-11-24T19:38:53.363Z,99701.31
2022-11-24T19:41:22.726Z,99702.56
2022-11-24T19:43:49.645Z,99713.91
2022-11-24T19:46:18.587Z,99713.31
2022-11-24T19:48:47.447Z,99706.63
2022-11-24T19:51:19.104Z,99703.91
2022-11-24T19:53:46.164Z,99718.91
2022-11-24T19:56:15.168Z,99699.16
2022-11-24T19:58:42.210Z,99713.53
2022-11-24T20:01:17.031Z,99709.66
2022-11-24T20:03:46.136Z,99701.00
2022-11-24T20:06:14.929Z,99706.31
2022-11-24T20:08:42.965Z,99705.00
2022-11-24T20:11:12.570Z,99703.72
2022-11-24T20:13:41.697Z,99707.78
2022-11-24T20:16:13.793Z,99704.41
2022-11-24T20:18:42.591Z,99710.16
2022-11-24T20:21:21.195Z,99702.44
2022-11-24T20:23:54.277Z,99718.47
2022-11-24T20:26:22.274Z,99726.06
2022-11-24T20:28:49.729Z,99729.41
2022-11-24T20:31:18.671Z,99727.56
2022-11-24T20:33:45.992Z,99735.88
2022-11-24T20:36:18.849Z,99740.78
2022-11-24T20:38:46.518Z,99740.03
2022-11-24T20:41:24.921Z,99761.75
2022-11-24T20:43:53.239Z,99753.81
2022-11-24T20:46:23.146Z,99747.19
2022-11-24T20:48:50.327Z,99762.69
2022-11-24T20:51:17.905Z,99756.03
2022-11-24T20:53:44.740Z,99760.22
2022-11-24T20:56:17.591Z,99758.41
2022-11-24T20:58:44.231Z,99760.97
2022-11-24T21:01:16.846Z,99758.88
2022-11-24T21:03:44.369Z,99765.91
2022-11-24T21:06:12.934Z,99770.94
2022-11-24T21:08:41.851Z,99764.66
2022-11-24T21:11:11.450Z,99768.16
2022-11-24T21:13:39.909Z,99774.81
2022-11-24T21:16:26.201Z,99779.03
2022-11-24T21:18:55.552Z,99780.56
2022-11-24T21:21:23.822Z,99778.44
2022-11-24T21:23:51.351Z,99783.88
2022-11-24T21:26:19.230Z,99790.03
2022-11-24T21:28:47.333Z,99799.63
2022-11-24T21:31:20.324Z,99785.84
2022-11-24T21:33:52.387Z,99787.25
2022-11-24T21:36:21.562Z,99788.13
2022-11-24T21:38:55.880Z,99774.72
2022-11-24T21:41:23.804Z,99786.53
2022-11-24T21:43:52.381Z,99797.91
2022-11-24T21:46:19.164Z,99792.28
2022-11-24T21:48:45.691Z,99789.34
2022-11-24T21:51:16.965Z,99780.09
2022-11-24T21:53:44.887Z,99780.47
2022-11-24T21:56:13.810Z,99779.31
2022-11-24T21:58:48.069Z,99783.41
2022-11-24T22:01:16.954Z,99779.91
2022-11-24T22:03:43.879Z,99791.63
2022-11-24T22:06:10.655Z,99792.28
2022-11-24T22:08:38.018Z,99792.28
2022-11-24T22:11:11.887Z,99796.25
2022-11-24T22:13:38.790Z,99803.81
2022-11-24T22:16:11.335Z,99801.78
2022-11-24T22:18:40.274Z,99806.50
2022-11-24T22:21:10.212Z,99809.38
2022-11-24T22:23:37.076Z,99804.13
2022-11-24T22:26:06.203Z,99808.56
2022-11-24T22:28:34.151Z,99792.41
2022-11-24T22:31:08.293Z,99798.78
2022-11-24T22:33:35.429Z,99798.06
2022-11-24T22:36:02.536Z,99789.03
2022-11-24T22:38:30.409Z,99796.34
2022-11-24T22:41:09.140Z,99799.53
2022-11-24T22:43:36.764Z,99817.19
2022-11-24T22:46:11.509Z,99811.47
2022-11-24T22:48:38.731Z,99808.19
2022-11-24T22:51:07.743Z,99807.75
2022-11-24T22:53:34.641Z,99817.31
2022-11-24T22:56:06.082Z,99822.03
2022-11-24T22:58:33.507Z,99822.16
2022-11-24T23:01:16.673Z,99821.00
2022-11-24T23:03:44.055Z,99818.03
2022-11-24T23:06:14.115Z,99826.06
2022-11-24T23:08:41.026Z,99835.41
2022-11-24T23:11:19.677Z,99846.53
2022-11-24T23:13:46.942Z,99848.41
2022-11-24T23:16:15.656Z,99842.50
2022-11-24T23:18:42.761Z,99840.22
2022-11-24T23:21:15.407Z,99839.03
2022-11-24T23:23:42.807Z,99866.09
2022-11-24T23:26:14.321Z,99835.84
2022-11-24T23:28:42.282Z,99835.63
2022-11-24T23:31:12.462Z,99856.28
2022-11-24T23:33:39.630Z,99834.78
2022-11-24T23:36:09.134Z,99835.53
2022-11-24T23:38:36.075Z,99835.09
2022-11-24T23:41:05.340Z,99827.50
2022-11-24T23:43:33.227Z,99830.78
2022-11-24T23:46:07.968Z,99820.72
2022-11-24T23:48:35.739Z,99808.59
2022-11-24T23:51:13.229Z,99818.66
2022-11-24T23:53:39.830Z,99805.59
2022-11-24T23:56:07.090Z,99807.66
2022-11-24T23:58:34.345Z,99798.09
